Time;durP1;ratioP1;P1;durP2;ratioP2;P2;SDS_P1;SDS_P2;PMS_P1;PMS_P2;Temp;Humidity;BMP_temperature;BMP_pressure;BME280_temperature;BME280_humidity;BME280_pressure;Samples;Min_cycle;Max_cycle;Signal;HPM_P1;HPM_P2
2023/07/25 00:01:35;;;;;;;12.10;3.85;;;;;;;;;;6213516;23;20015;-63
2023/07/25 00:04:01;;;;;;;9.57;3.80;;;;;;;;;;6212558;23;20012;-63
2023/07/25 00:06:27;;;;;;;7.68;3.70;;;;;;;;;;6213200;23;20339;-63
2023/07/25 00:08:53;;;;;;;14.82;3.97;;;;;;;;;;6213137;23;20021;-63
2023/07/25 00:11:19;;;;;;;9.27;2.90;;;;;;;;;;6212428;23;20023;-63
2023/07/25 00:13:45;;;;;;;9.75;3.50;;;;;;;;;;6212607;23;20016;-63
2023/07/25 00:16:11;;;;;;;8.35;3.28;;;;;;;;;;6213281;23;20017;-63
2023/07/25 00:18:37;;;;;;;8.85;3.05;;;;;;;;;;6212833;23;20017;-63
2023/07/25 00:21:03;;;;;;;7.10;3.00;;;;;;;;;;6212987;23;20013;-63
2023/07/25 00:23:29;;;;;;;12.27;3.10;;;;;;;;;;6213171;23;20064;-63
2023/07/25 00:25:55;;;;;;;8.93;3.80;;;;;;;;;;6212330;23;20020;-63
2023/07/25 00:28:22;;;;;;;8.85;3.15;;;;;;;;;;6213040;23;20019;-63
2023/07/25 00:30:48;;;;;;;9.18;3.25;;;;;;;;;;6213113;23;20021;-63
2023/07/25 00:33:14;;;;;;;8.45;4.78;;;;;;;;;;6212463;23;20100;-63
2023/07/25 00:35:40;;;;;;;7.68;3.67;;;;;;;;;;6212867;23;20450;-63
2023/07/25 00:38:06;;;;;;;12.18;3.38;;;;;;;;;;6213013;23;20040;-63
2023/07/25 00:40:37;;;;;;;12.40;3.38;;;;;;;;;;6212456;23;20012;-63
2023/07/25 00:43:03;;;;;;;8.90;3.70;;;;;;;;;;6212283;23;20020;-63
2023/07/25 00:45:30;;;;;;;9.95;3.47;;;;;;;;;;6212516;23;20021;-63
2023/07/25 00:47:56;;;;;;;4.88;3.05;;;;;;;;;;6212198;23;20021;-63
2023/07/25 00:50:22;;;;;;;8.98;3.35;;;;;;;;;;6213004;23;20509;-63
2023/07/25 00:52:48;;;;;;;7.25;3.30;;;;;;;;;;6212948;23;20016;-63
2023/07/25 00:55:14;;;;;;;9.82;3.47;;;;;;;;;;6210992;23;20371;-63
2023/07/25 00:57:40;;;;;;;9.80;3.25;;;;;;;;;;6212885;23;20641;-63
2023/07/25 01:00:07;;;;;;;6.38;3.78;;;;;;;;;;6212933;23;20012;-63
2023/07/25 01:02:34;;;;;;;11.98;4.10;;;;;;;;;;6211751;23;20092;-63
2023/07/25 01:05:00;;;;;;;9.85;3.60;;;;;;;;;;6212672;23;20014;-63
2023/07/25 01:07:26;;;;;;;7.82;3.38;;;;;;;;;;6212845;23;20024;-63
2023/07/25 01:09:52;;;;;;;9.55;3.90;;;;;;;;;;6212296;23;20012;-63
2023/07/25 01:12:18;;;;;;;10.35;3.28;;;;;;;;;;6212349;23;20020;-63
2023/07/25 01:14:44;;;;;;;8.93;3.88;;;;;;;;;;6212759;23;20012;-63
2023/07/25 01:17:14;;;;;;;9.18;3.72;;;;;;;;;;6212268;23;20102;-63
2023/07/25 01:19:41;;;;;;;6.45;3.83;;;;;;;;;;6212931;23;20535;-63
2023/07/25 01:22:08;;;;;;;10.90;4.05;;;;;;;;;;6212731;23;20009;-63
2023/07/25 01:24:37;;;;;;;9.77;3.88;;;;;;;;;;6212117;23;20020;-63
2023/07/25 01:27:04;;;;;;;12.63;3.63;;;;;;;;;;6212825;23;20082;-63
2023/07/25 01:29:30;;;;;;;10.60;3.70;;;;;;;;;;6210840;23;20035;-63
2023/07/25 01:31:56;;;;;;;10.90;3.55;;;;;;;;;;6211319;23;20474;-63
2023/07/25 01:34:22;;;;;;;7.65;3.63;;;;;;;;;;6212493;23;20087;-63
2023/07/25 01:36:48;;;;;;;7.78;3.90;;;;;;;;;;6211989;23;20024;-63
2023/07/25 01:39:14;;;;;;;12.05;4.18;;;;;;;;;;6212063;23;20023;-63
2023/07/25 01:41:41;;;;;;;10.20;4.25;;;;;;;;;;6212614;23;20420;-63
2023/07/25 01:44:07;;;;;;;11.05;4.22;;;;;;;;;;6212637;23;20390;-63
2023/07/25 01:46:33;;;;;;;9.98;3.80;;;;;;;;;;6210515;23;20436;-63
2023/07/25 01:48:59;;;;;;;10.05;4.05;;;;;;;;;;6212682;23;20101;-63
2023/07/25 01:51:26;;;;;;;9.73;3.72;;;;;;;;;;6212679;23;20048;-63
2023/07/25 01:53:53;;;;;;;6.85;3.63;;;;;;;;;;6212015;23;20020;-63
2023/07/25 01:56:20;;;;;;;9.27;4.28;;;;;;;;;;6212677;23;20008;-63
2023/07/25 01:58:46;;;;;;;10.60;4.00;;;;;;;;;;6212567;23;20643;-63
2023/07/25 02:01:12;;;;;;;11.52;3.55;;;;;;;;;;6210739;23;20013;-63
2023/07/25 02:03:38;;;;;;;11.30;3.65;;;;;;;;;;6212032;23;20067;-63
2023/07/25 02:06:04;;;;;;;10.65;3.70;;;;;;;;;;6212341;23;20028;-63
2023/07/25 02:08:30;;;;;;;8.07;3.67;;;;;;;;;;6212174;23;20309;-63
2023/07/25 02:10:56;;;;;;;9.20;3.95;;;;;;;;;;6212178;23;20108;-63
2023/07/25 02:13:22;;;;;;;10.02;4.53;;;;;;;;;;6210764;23;20436;-63
2023/07/25 02:15:48;;;;;;;9.48;4.22;;;;;;;;;;6212059;23;20020;-63
2023/07/25 02:18:14;;;;;;;9.82;4.20;;;;;;;;;;6212386;23;20012;-63
2023/07/25 02:20:40;;;;;;;8.85;3.70;;;;;;;;;;6212235;23;20021;-63
2023/07/25 02:23:06;;;;;;;11.85;3.58;;;;;;;;;;6211769;23;20071;-63
2023/07/25 02:25:32;;;;;;;9.20;3.78;;;;;;;;;;6212257;23;20004;-63
2023/07/25 02:27:59;;;;;;;8.43;3.88;;;;;;;;;;6212385;23;20021;-63
2023/07/25 02:30:25;;;;;;;9.90;4.00;;;;;;;;;;6212029;23;20360;-63
2023/07/25 02:32:51;;;;;;;8.63;3.53;;;;;;;;;;6212264;23;20059;-63
2023/07/25 02:35:17;;;;;;;8.98;4.13;;;;;;;;;;6212225;23;20016;-63
2023/07/25 02:37:43;;;;;;;7.88;3.50;;;;;;;;;;6211903;23;20345;-63
2023/07/25 02:40:09;;;;;;;9.82;4.18;;;;;;;;;;6212308;23;20012;-63
2023/07/25 02:42:35;;;;;;;10.43;3.70;;;;;;;;;;6212479;23;20016;-63
2023/07/25 02:45:02;;;;;;;10.88;3.67;;;;;;;;;;6213495;23;20159;-63
2023/07/25 02:47:28;;;;;;;9.13;3.90;;;;;;;;;;6213851;23;20016;-63
2023/07/25 02:49:54;;;;;;;8.02;4.30;;;;;;;;;;6214040;23;20016;-63
2023/07/25 02:52:20;;;;;;;9.27;4.07;;;;;;;;;;6213140;23;20020;-63
2023/07/25 02:54:46;;;;;;;11.00;4.30;;;;;;;;;;6213756;23;20015;-63
2023/07/25 02:57:12;;;;;;;8.60;3.60;;;;;;;;;;6214074;23;20436;-63
2023/07/25 02:59:38;;;;;;;10.65;4.20;;;;;;;;;;6213438;23;20025;-63
2023/07/25 03:02:04;;;;;;;10.30;4.22;;;;;;;;;;6214041;23;20009;-63
2023/07/25 03:04:30;;;;;;;9.07;3.90;;;;;;;;;;6212341;23;20016;-63
2023/07/25 03:06:56;;;;;;;8.35;3.80;;;;;;;;;;6213524;23;20058;-63
2023/07/25 03:09:22;;;;;;;8.45;3.92;;;;;;;;;;6213874;23;20062;-63
2023/07/25 03:11:48;;;;;;;8.85;3.72;;;;;;;;;;6213470;23;20020;-63
2023/07/25 03:14:15;;;;;;;9.60;3.70;;;;;;;;;;6213549;23;20051;-63
2023/07/25 03:16:41;;;;;;;9.10;3.67;;;;;;;;;;6213838;23;20024;-63
2023/07/25 03:19:07;;;;;;;8.35;4.00;;;;;;;;;;6213855;23;20020;-63
2023/07/25 03:21:33;;;;;;;8.23;3.90;;;;;;;;;;6213533;23;20701;-63
2023/07/25 03:23:59;;;;;;;11.95;4.38;;;;;;;;;;6213150;23;20013;-63
2023/07/25 03:26:25;;;;;;;6.10;3.75;;;;;;;;;;6213850;23;20084;-63
2023/07/25 03:28:51;;;;;;;7.85;3.85;;;;;;;;;;6213543;23;20583;-63
2023/07/25 03:31:17;;;;;;;10.98;3.72;;;;;;;;;;6213033;23;20099;-63
2023/07/25 03:33:43;;;;;;;9.73;4.32;;;;;;;;;;6213408;23;20024;-63
2023/07/25 03:36:09;;;;;;;8.82;4.28;;;;;;;;;;6213194;23;20020;-63
2023/07/25 03:38:35;;;;;;;7.43;3.60;;;;;;;;;;6212977;23;20031;-63
2023/07/25 03:41:01;;;;;;;8.18;3.95;;;;;;;;;;6213431;23;20546;-63
2023/07/25 03:43:27;;;;;;;8.90;3.72;;;;;;;;;;6213496;23;20051;-63
2023/07/25 03:45:53;;;;;;;8.75;3.70;;;;;;;;;;6213003;23;20012;-63
2023/07/25 03:48:19;;;;;;;10.50;3.90;;;;;;;;;;6213651;23;20016;-63
2023/07/25 03:50:45;;;;;;;9.65;3.60;;;;;;;;;;6213277;23;20017;-63
2023/07/25 03:53:12;;;;;;;8.52;3.40;;;;;;;;;;6212962;23;20023;-63
2023/07/25 03:55:38;;;;;;;9.43;3.50;;;;;;;;;;6213002;23;20019;-63
2023/07/25 03:58:04;;;;;;;11.55;3.40;;;;;;;;;;6213599;23;20017;-63
2023/07/25 04:00:30;;;;;;;7.53;3.42;;;;;;;;;;6213113;23;20005;-63
2023/07/25 04:02:56;;;;;;;9.00;3.70;;;;;;;;;;6213384;23;20092;-63
2023/07/25 04:05:22;;;;;;;9.48;3.88;;;;;;;;;;6213299;23;20020;-63
2023/07/25 04:07:48;;;;;;;13.27;3.83;;;;;;;;;;6212979;23;20297;-63
2023/07/25 04:10:14;;;;;;;8.85;3.40;;;;;;;;;;6212727;23;20443;-63
2023/07/25 04:12:40;;;;;;;9.57;4.05;;;;;;;;;;6213353;23;20062;-63
2023/07/25 04:15:06;;;;;;;10.05;4.30;;;;;;;;;;6212885;23;20340;-63
2023/07/25 04:17:32;;;;;;;6.85;3.97;;;;;;;;;;6213212;23;20703;-63
2023/07/25 04:19:58;;;;;;;7.78;3.05;;;;;;;;;;6213209;23;20158;-63
2023/07/25 04:22:24;;;;;;;7.95;3.70;;;;;;;;;;6212112;23;20015;-63
2023/07/25 04:24:50;;;;;;;7.43;3.75;;;;;;;;;;6213127;23;20051;-63
2023/07/25 04:27:16;;;;;;;11.25;4.03;;;;;;;;;;6213251;23;20016;-63
2023/07/25 04:29:42;;;;;;;6.50;3.92;;;;;;;;;;6212575;23;20020;-63
2023/07/25 04:32:08;;;;;;;10.68;3.90;;;;;;;;;;6213007;23;20443;-63
2023/07/25 04:34:34;;;;;;;11.48;3.95;;;;;;;;;;6213011;23;20027;-63
2023/07/25 04:37:00;;;;;;;8.98;3.70;;;;;;;;;;6212175;23;20490;-63
2023/07/25 04:39:27;;;;;;;11.02;4.13;;;;;;;;;;6213089;23;20024;-63
2023/07/25 04:41:53;;;;;;;13.40;4.07;;;;;;;;;;6213352;23;20098;-63
2023/07/25 04:44:19;;;;;;;9.85;3.60;;;;;;;;;;6213029;23;20436;-63
2023/07/25 04:46:45;;;;;;;7.22;3.50;;;;;;;;;;6213318;23;20062;-63
2023/07/25 04:49:14;;;;;;;9.15;3.63;;;;;;;;;;6213578;23;20316;-63
2023/07/25 04:51:40;;;;;;;10.63;3.53;;;;;;;;;;6213017;23;20088;-63
2023/07/25 04:54:07;;;;;;;5.55;3.20;;;;;;;;;;6213504;23;20376;-63
2023/07/25 04:56:33;;;;;;;16.52;3.63;;;;;;;;;;6213433;23;20020;-63
2023/07/25 04:58:59;;;;;;;11.00;3.35;;;;;;;;;;6213027;23;20172;-63
2023/07/25 05:01:25;;;;;;;9.35;3.13;;;;;;;;;;6211686;23;20024;-63
2023/07/25 05:03:51;;;;;;;8.30;3.08;;;;;;;;;;6213431;23;20016;-63
2023/07/25 05:06:17;;;;;;;10.40;3.40;;;;;;;;;;6212775;23;20607;-63
2023/07/25 05:08:43;;;;;;;10.63;3.25;;;;;;;;;;6212874;23;20096;-63
2023/07/25 05:11:09;;;;;;;9.25;3.20;;;;;;;;;;6213299;23;20078;-63
2023/07/25 05:13:35;;;;;;;10.65;3.42;;;;;;;;;;6212840;23;20025;-63
2023/07/25 05:16:01;;;;;;;11.70;3.40;;;;;;;;;;6213398;23;20524;-63
2023/07/25 05:18:27;;;;;;;9.52;2.85;;;;;;;;;;6213343;23;20012;-63
2023/07/25 05:20:53;;;;;;;12.90;3.08;;;;;;;;;;6212894;23;20062;-63
2023/07/25 05:23:19;;;;;;;7.85;2.67;;;;;;;;;;6213186;23;20618;-63
2023/07/25 05:25:48;;;;;;;9.75;2.55;;;;;;;;;;6213242;23;20013;-63
2023/07/25 05:28:14;;;;;;;15.07;2.97;;;;;;;;;;6212395;23;20019;-63
2023/07/25 05:30:40;;;;;;;8.23;2.45;;;;;;;;;;6212824;23;20025;-63
2023/07/25 05:33:07;;;;;;;10.60;2.78;;;;;;;;;;6213071;23;20040;-63
2023/07/25 05:35:33;;;;;;;10.57;3.42;;;;;;;;;;6212441;23;20052;-63
2023/07/25 05:38:00;;;;;;;10.13;2.67;;;;;;;;;;6211225;23;20075;-63
2023/07/25 05:40:27;;;;;;;9.57;2.50;;;;;;;;;;6213160;23;20044;-63
2023/07/25 05:42:53;;;;;;;11.23;2.80;;;;;;;;;;6212569;23;20047;-63
2023/07/25 05:45:19;;;;;;;7.88;2.10;;;;;;;;;;6212710;23;20587;-63
2023/07/25 05:47:45;;;;;;;9.70;2.58;;;;;;;;;;6213205;23;20020;-63
2023/07/25 05:50:12;;;;;;;13.07;2.60;;;;;;;;;;6212262;23;20110;-63
2023/07/25 05:52:38;;;;;;;9.00;2.78;;;;;;;;;;6213083;23;20040;-63
2023/07/25 05:55:04;;;;;;;9.23;2.17;;;;;;;;;;6212826;23;20017;-63
2023/07/25 05:57:30;;;;;;;10.95;2.10;;;;;;;;;;6212657;23;20128;-63
2023/07/25 05:59:56;;;;;;;8.60;2.08;;;;;;;;;;6212862;23;20607;-63
2023/07/25 06:02:22;;;;;;;8.70;2.20;;;;;;;;;;6212924;23;20019;-63
2023/07/25 06:04:48;;;;;;;13.13;2.92;;;;;;;;;;6212425;23;20021;-63
2023/07/25 06:07:15;;;;;;;8.98;2.13;;;;;;;;;;6212027;23;20092;-63
2023/07/25 06:09:41;;;;;;;7.55;2.20;;;;;;;;;;6211342;23;20017;-63
2023/07/25 06:12:08;;;;;;;12.70;2.28;;;;;;;;;;6210727;23;20017;-64
2023/07/25 06:14:34;;;;;;;9.75;2.15;;;;;;;;;;6212072;23;20016;-63
2023/07/25 06:17:00;;;;;;;7.03;1.73;;;;;;;;;;6211848;23;20471;-63
2023/07/25 06:19:26;;;;;;;8.38;2.13;;;;;;;;;;6213753;23;20021;-63
2023/07/25 06:21:52;;;;;;;9.43;2.33;;;;;;;;;;6214258;23;20423;-63
2023/07/25 06:24:18;;;;;;;9.27;2.50;;;;;;;;;;6214194;23;20043;-63
2023/07/25 06:26:44;;;;;;;9.98;1.60;;;;;;;;;;6213792;23;20012;-63
2023/07/25 06:29:10;;;;;;;10.15;2.28;;;;;;;;;;6214356;23;20332;-63
2023/07/25 06:31:36;;;;;;;13.82;2.17;;;;;;;;;;6214362;23;20420;-64
2023/07/25 06:34:03;;;;;;;10.48;1.83;;;;;;;;;;6214061;23;20016;-63
2023/07/25 06:36:28;;;;;;;7.65;1.67;;;;;;;;;;6213717;23;20364;-63
2023/07/25 06:38:55;;;;;;;5.90;1.63;;;;;;;;;;6214336;23;20023;-64
2023/07/25 06:41:21;;;;;;;6.18;1.77;;;;;;;;;;6214265;23;20013;-64
2023/07/25 06:43:47;;;;;;;7.53;1.73;;;;;;;;;;6213532;23;20059;-64
2023/07/25 06:46:13;;;;;;;9.52;1.70;;;;;;;;;;6214274;23;20015;-64
2023/07/25 06:48:39;;;;;;;14.02;1.80;;;;;;;;;;6214285;23;20020;-63
2023/07/25 06:51:05;;;;;;;10.45;1.80;;;;;;;;;;6213930;23;20023;-64
2023/07/25 06:53:31;;;;;;;6.07;1.40;;;;;;;;;;6213869;23;20455;-64
2023/07/25 06:55:57;;;;;;;7.80;1.30;;;;;;;;;;6213879;23;20016;-63
2023/07/25 06:58:23;;;;;;;4.50;1.27;;;;;;;;;;6213640;23;20023;-62
2023/07/25 07:00:49;;;;;;;8.52;1.73;;;;;;;;;;6213972;23;20021;-62
2023/07/25 07:03:15;;;;;;;3.63;1.10;;;;;;;;;;6213853;23;20017;-62
2023/07/25 07:05:41;;;;;;;5.28;1.10;;;;;;;;;;6213155;23;20008;-62
2023/07/25 07:08:07;;;;;;;6.57;1.10;;;;;;;;;;6213501;23;20338;-62
2023/07/25 07:10:33;;;;;;;8.77;1.30;;;;;;;;;;6213903;23;20091;-62
2023/07/25 07:13:00;;;;;;;9.05;1.17;;;;;;;;;;6213033;23;20017;-63
2023/07/25 07:15:26;;;;;;;6.25;1.20;;;;;;;;;;6214180;23;20008;-63
2023/07/25 07:17:52;;;;;;;5.95;0.88;;;;;;;;;;6213909;23;20020;-63
2023/07/25 07:20:18;;;;;;;8.55;1.10;;;;;;;;;;6211821;23;20091;-64
2023/07/25 07:22:45;;;;;;;3.97;0.63;;;;;;;;;;6209081;23;20019;-64
2023/07/25 07:25:11;;;;;;;3.72;0.80;;;;;;;;;;6213211;23;20016;-65
2023/07/25 07:27:37;;;;;;;6.53;0.80;;;;;;;;;;6212798;23;20355;-64
2023/07/25 07:30:03;;;;;;;3.40;0.93;;;;;;;;;;6212789;23;20067;-63
2023/07/25 07:32:29;;;;;;;12.77;1.38;;;;;;;;;;6213551;23;20442;-63
2023/07/25 07:34:55;;;;;;;5.75;1.00;;;;;;;;;;6212905;23;20551;-63
2023/07/25 07:37:21;;;;;;;3.63;0.90;;;;;;;;;;6212863;23;20024;-63
2023/07/25 07:39:47;;;;;;;11.27;1.30;;;;;;;;;;6213382;23;20020;-63
2023/07/25 07:42:14;;;;;;;6.38;0.75;;;;;;;;;;6212626;23;20103;-64
2023/07/25 07:44:40;;;;;;;7.05;0.90;;;;;;;;;;6213167;23;20012;-62
2023/07/25 07:47:06;;;;;;;1.70;0.60;;;;;;;;;;6212238;23;20012;-62
2023/07/25 07:49:34;;;;;;;4.95;0.77;;;;;;;;;;6212498;23;20017;-63
2023/07/25 07:52:00;;;;;;;6.20;1.30;;;;;;;;;;6213183;23;20048;-62
2023/07/25 07:54:27;;;;;;;5.30;0.90;;;;;;;;;;6213528;23;20087;-63
2023/07/25 07:56:53;;;;;;;3.88;0.82;;;;;;;;;;6212633;23;20016;-62
2023/07/25 07:59:19;;;;;;;5.47;0.90;;;;;;;;;;6213361;23;20043;-63
2023/07/25 08:01:45;;;;;;;4.00;0.93;;;;;;;;;;6213144;23;20012;-64
2023/07/25 08:04:11;;;;;;;2.97;0.77;;;;;;;;;;6212438;23;20017;-64
2023/07/25 08:06:37;;;;;;;5.93;0.70;;;;;;;;;;6213161;23;20008;-63
2023/07/25 08:09:04;;;;;;;2.67;0.93;;;;;;;;;;6213210;23;20561;-63
2023/07/25 08:11:30;;;;;;;2.10;0.75;;;;;;;;;;6212733;23;20023;-63
2023/07/25 08:13:56;;;;;;;6.32;0.80;;;;;;;;;;6212667;23;20343;-64
2023/07/25 08:16:22;;;;;;;3.65;0.95;;;;;;;;;;6213149;23;20012;-62
2023/07/25 08:18:48;;;;;;;4.47;0.80;;;;;;;;;;6212648;23;20452;-64
2023/07/25 08:21:14;;;;;;;5.10;1.02;;;;;;;;;;6213234;23;20013;-64
2023/07/25 08:23:40;;;;;;;5.05;1.10;;;;;;;;;;6185566;23;20044;-64
2023/07/25 08:26:06;;;;;;;5.68;0.90;;;;;;;;;;6186197;23;20051;-64
2023/07/25 08:28:32;;;;;;;4.30;0.70;;;;;;;;;;6212889;23;20016;-64
2023/07/25 08:31:02;;;;;;;2.42;0.80;;;;;;;;;;6213140;23;20511;-64
2023/07/25 08:33:32;;;;;;;7.63;1.10;;;;;;;;;;6212146;23;20013;-65
2023/07/25 08:35:58;;;;;;;5.55;0.85;;;;;;;;;;6212444;23;20016;-64
2023/07/25 08:38:24;;;;;;;8.43;0.90;;;;;;;;;;6213166;23;20483;-63
2023/07/25 08:40:55;;;;;;;4.15;0.80;;;;;;;;;;6212366;23;20013;-63
2023/07/25 08:43:22;;;;;;;5.55;1.00;;;;;;;;;;6185940;23;20070;-63
2023/07/25 08:45:48;;;;;;;6.20;0.70;;;;;;;;;;6213014;23;20062;-63
2023/07/25 08:48:15;;;;;;;1.30;0.77;;;;;;;;;;6212192;23;20016;-62
2023/07/25 08:50:46;;;;;;;3.30;0.70;;;;;;;;;;6213134;23;20072;-63
2023/07/25 08:53:13;;;;;;;1.55;0.60;;;;;;;;;;6212902;23;20016;-62
2023/07/25 08:55:39;;;;;;;4.07;0.88;;;;;;;;;;6212419;23;20016;-63
2023/07/25 08:58:05;;;;;;;4.93;1.00;;;;;;;;;;6212551;23;20019;-63
2023/07/25 09:00:31;;;;;;;3.58;0.70;;;;;;;;;;6212950;23;20343;-62
2023/07/25 09:02:58;;;;;;;2.15;0.70;;;;;;;;;;6212308;23;20008;-62
2023/07/25 09:05:24;;;;;;;5.47;0.73;;;;;;;;;;6212727;23;20032;-64
2023/07/25 09:07:50;;;;;;;4.07;0.70;;;;;;;;;;6212606;23;20086;-64
2023/07/25 09:10:16;;;;;;;1.70;0.47;;;;;;;;;;6212059;23;20048;-64
2023/07/25 09:12:42;;;;;;;3.33;0.80;;;;;;;;;;6212652;23;20017;-63
2023/07/25 09:15:09;;;;;;;4.15;0.55;;;;;;;;;;6212852;23;20047;-63
2023/07/25 09:17:35;;;;;;;7.85;1.13;;;;;;;;;;6212196;23;20016;-63
2023/07/25 09:20:02;;;;;;;4.45;0.93;;;;;;;;;;6212458;23;20067;-63
2023/07/25 09:22:32;;;;;;;3.67;0.88;;;;;;;;;;6212786;23;20058;-63
2023/07/25 09:24:58;;;;;;;1.70;0.68;;;;;;;;;;6211867;23;20112;-64
2023/07/25 09:27:25;;;;;;;4.03;0.73;;;;;;;;;;6212687;23;20066;-64
2023/07/25 09:29:52;;;;;;;3.95;0.80;;;;;;;;;;6212049;23;20024;-64
2023/07/25 09:32:19;;;;;;;5.43;1.05;;;;;;;;;;6211752;23;20020;-64
2023/07/25 09:34:46;;;;;;;3.85;1.10;;;;;;;;;;6212699;23;20583;-64
2023/07/25 09:37:16;;;;;;;3.00;0.60;;;;;;;;;;6211882;23;20020;-64
2023/07/25 09:39:43;;;;;;;3.22;0.70;;;;;;;;;;6212111;23;20013;-65
2023/07/25 09:42:09;;;;;;;1.83;0.45;;;;;;;;;;6212270;23;20020;-64
2023/07/25 09:44:35;;;;;;;3.85;0.70;;;;;;;;;;6212081;23;20067;-64
2023/07/25 09:47:01;;;;;;;3.80;0.80;;;;;;;;;;6211921;23;20024;-64
2023/07/25 09:49:27;;;;;;;4.07;1.00;;;;;;;;;;6212381;23;20548;-64
2023/07/25 09:52:00;;;;;;;5.03;0.57;;;;;;;;;;6212606;23;20432;-64
2023/07/25 09:54:26;;;;;;;1.88;0.50;;;;;;;;;;6213856;23;20016;-64
2023/07/25 09:56:53;;;;;;;3.55;0.80;;;;;;;;;;6214531;23;20364;-64
2023/07/25 09:59:19;;;;;;;5.13;0.75;;;;;;;;;;6214801;23;20012;-64
2023/07/25 10:01:45;;;;;;;3.40;0.63;;;;;;;;;;6214032;23;20436;-64
2023/07/25 10:04:12;;;;;;;2.95;0.77;;;;;;;;;;6214263;23;20035;-64
2023/07/25 10:06:38;;;;;;;3.58;0.70;;;;;;;;;;6214152;23;20016;-64
2023/07/25 10:09:04;;;;;;;3.83;0.73;;;;;;;;;;6214120;23;20013;-64
2023/07/25 10:11:31;;;;;;;0.90;0.40;;;;;;;;;;6214695;23;20099;-64
2023/07/25 10:13:57;;;;;;;3.15;0.75;;;;;;;;;;6214099;23;20419;-64
2023/07/25 10:16:23;;;;;;;3.88;0.85;;;;;;;;;;6213906;23;20016;-64
2023/07/25 10:18:57;;;;;;;3.65;1.05;;;;;;;;;;6214629;23;20451;-64
2023/07/25 10:21:27;;;;;;;3.22;0.70;;;;;;;;;;6213990;23;20017;-64
2023/07/25 10:23:59;;;;;;;3.28;0.50;;;;;;;;;;6213725;23;20067;-65
2023/07/25 10:26:27;;;;;;;5.18;1.00;;;;;;;;;;6213880;23;20047;-64
2023/07/25 10:28:53;;;;;;;4.18;0.63;;;;;;;;;;6214122;23;20023;-63
2023/07/25 10:31:23;;;;;;;1.73;0.60;;;;;;;;;;6214023;23;20320;-63
2023/07/25 10:33:57;;;;;;;3.45;0.90;;;;;;;;;;6214210;23;20016;-64
2023/07/25 10:36:24;;;;;;;3.70;0.65;;;;;;;;;;6213800;23;20059;-64
2023/07/25 10:38:52;;;;;;;4.05;0.77;;;;;;;;;;6213817;23;20028;-65
2023/07/25 10:41:19;;;;;;;3.40;0.60;;;;;;;;;;6214385;23;20028;-64
2023/07/25 10:43:46;;;;;;;4.03;0.60;;;;;;;;;;6214233;23;20055;-64
2023/07/25 10:46:14;;;;;;;3.65;0.93;;;;;;;;;;6213507;23;20379;-64
2023/07/25 10:49:00;;;;;;;3.22;0.63;;;;;;;;;;6214176;23;20017;-64
2023/07/25 10:51:46;;;;;;;3.78;0.93;;;;;;;;;;6213946;23;20016;-64
2023/07/25 10:54:12;;;;;;;4.47;0.60;;;;;;;;;;6213474;23;20074;-64
2023/07/25 10:56:39;;;;;;;3.47;0.73;;;;;;;;;;6214258;23;20447;-64
2023/07/25 10:59:14;;;;;;;3.17;0.88;;;;;;;;;;6214154;23;20071;-62
2023/07/25 11:01:45;;;;;;;5.07;0.90;;;;;;;;;;6213453;23;20027;-62
2023/07/25 11:04:30;;;;;;;2.83;0.80;;;;;;;;;;6213752;23;20043;-62
2023/07/25 11:06:58;;;;;;;3.13;0.70;;;;;;;;;;6214092;23;20052;-63
2023/07/25 11:09:25;;;;;;;3.80;0.75;;;;;;;;;;6213080;23;20070;-64
2023/07/25 11:11:52;;;;;;;3.15;0.73;;;;;;;;;;6213727;23;20059;-64
2023/07/25 11:14:18;;;;;;;3.03;0.80;;;;;;;;;;6213820;23;20074;-63
2023/07/25 11:16:45;;;;;;;3.45;0.90;;;;;;;;;;6213727;23;20050;-64
2023/07/25 11:19:12;;;;;;;2.40;0.70;;;;;;;;;;6214086;23;20063;-64
2023/07/25 11:21:39;;;;;;;4.32;0.82;;;;;;;;;;6213439;23;20016;-63
2023/07/25 11:24:07;;;;;;;0.93;0.50;;;;;;;;;;6213244;23;20019;-65
2023/07/25 11:26:33;;;;;;;3.35;0.65;;;;;;;;;;6213440;23;20020;-64
2023/07/25 11:29:03;;;;;;;6.20;0.70;;;;;;;;;;6213638;23;20502;-64
2023/07/25 11:31:29;;;;;;;1.85;0.60;;;;;;;;;;6213362;23;20099;-64
2023/07/25 11:33:55;;;;;;;5.80;0.82;;;;;;;;;;6213505;23;20017;-64
2023/07/25 11:36:22;;;;;;;5.07;1.33;;;;;;;;;;6212731;23;20031;-64
2023/07/25 11:38:48;;;;;;;1.67;0.60;;;;;;;;;;6213400;23;20056;-64
2023/07/25 11:41:14;;;;;;;3.13;0.80;;;;;;;;;;6213648;23;20008;-64
2023/07/25 11:43:40;;;;;;;5.13;0.60;;;;;;;;;;6213573;23;20091;-63
2023/07/25 11:46:07;;;;;;;4.10;0.57;;;;;;;;;;6212918;23;20009;-63
2023/07/25 11:48:33;;;;;;;3.55;0.60;;;;;;;;;;6213589;23;20091;-63
2023/07/25 11:50:59;;;;;;;3.88;0.70;;;;;;;;;;6213865;23;20470;-63
2023/07/25 11:53:27;;;;;;;1.90;0.60;;;;;;;;;;6212763;23;20048;-64
2023/07/25 11:55:55;;;;;;;4.05;1.08;;;;;;;;;;6213123;23;20019;-63
2023/07/25 11:58:22;;;;;;;1.98;0.80;;;;;;;;;;6213538;23;20017;-63
2023/07/25 12:00:54;;;;;;;3.83;0.80;;;;;;;;;;6213039;23;20048;-62
2023/07/25 12:03:21;;;;;;;3.70;1.10;;;;;;;;;;6213452;23;20095;-62
2023/07/25 12:06:00;;;;;;;3.88;0.70;;;;;;;;;;6213277;23;20021;-64
2023/07/25 12:08:33;;;;;;;2.53;0.65;;;;;;;;;;6213167;23;20328;-64
2023/07/25 12:11:03;;;;;;;4.63;1.00;;;;;;;;;;6213576;23;20016;-63
2023/07/25 12:13:29;;;;;;;3.13;0.75;;;;;;;;;;6212990;23;20091;-64
2023/07/25 12:15:56;;;;;;;3.50;0.98;;;;;;;;;;6212820;23;20017;-64
2023/07/25 12:18:37;;;;;;;3.15;0.70;;;;;;;;;;6213050;23;20463;-64
2023/07/25 12:21:04;;;;;;;1.53;0.70;;;;;;;;;;6213296;23;20008;-64
2023/07/25 12:23:31;;;;;;;2.45;0.75;;;;;;;;;;6212578;23;20016;-64
2023/07/25 12:25:57;;;;;;;4.57;0.82;;;;;;;;;;6212880;23;20019;-63
2023/07/25 12:28:24;;;;;;;4.72;0.65;;;;;;;;;;6213180;23;20023;-63
2023/07/25 12:30:50;;;;;;;2.83;0.85;;;;;;;;;;6212316;23;20028;-65
2023/07/25 12:33:16;;;;;;;6.03;1.10;;;;;;;;;;6212653;23;20121;-64
2023/07/25 12:35:42;;;;;;;3.53;0.70;;;;;;;;;;6212458;23;20016;-64
2023/07/25 12:38:08;;;;;;;3.53;0.70;;;;;;;;;;6212514;23;20063;-64
2023/07/25 12:40:34;;;;;;;4.03;0.90;;;;;;;;;;6213245;23;20506;-65
2023/07/25 12:43:00;;;;;;;5.57;0.60;;;;;;;;;;6213110;23;20017;-64
2023/07/25 12:45:26;;;;;;;1.63;0.60;;;;;;;;;;6212667;23;20021;-64
2023/07/25 12:47:52;;;;;;;3.03;0.70;;;;;;;;;;6213053;23;20100;-64
2023/07/25 12:50:18;;;;;;;2.53;0.90;;;;;;;;;;6213012;23;20017;-63
2023/07/25 12:52:44;;;;;;;2.72;0.50;;;;;;;;;;6212576;23;20017;-64
2023/07/25 12:55:10;;;;;;;1.55;0.70;;;;;;;;;;6213172;23;20020;-65
2023/07/25 12:57:36;;;;;;;3.63;0.73;;;;;;;;;;6212533;23;20009;-65
2023/07/25 13:00:03;;;;;;;3.40;0.80;;;;;;;;;;6212440;23;20087;-64
2023/07/25 13:02:29;;;;;;;3.53;0.60;;;;;;;;;;6211311;23;20462;-64
2023/07/25 13:04:55;;;;;;;4.35;0.70;;;;;;;;;;6212885;23;20009;-64
2023/07/25 13:07:22;;;;;;;2.97;0.50;;;;;;;;;;6212525;23;20016;-64
2023/07/25 13:09:48;;;;;;;2.75;0.60;;;;;;;;;;6212849;23;20464;-64
2023/07/25 13:12:14;;;;;;;2.50;0.60;;;;;;;;;;6212819;23;20013;-63
2023/07/25 13:14:40;;;;;;;4.68;0.60;;;;;;;;;;6212269;23;20012;-62
2023/07/25 13:17:06;;;;;;;2.50;0.60;;;;;;;;;;6212973;23;20013;-63
2023/07/25 13:19:32;;;;;;;7.65;0.70;;;;;;;;;;6212974;23;20017;-63
2023/07/25 13:21:58;;;;;;;2.63;0.68;;;;;;;;;;6212161;23;20083;-64
2023/07/25 13:24:24;;;;;;;4.13;0.82;;;;;;;;;;6212881;23;20062;-63
2023/07/25 13:26:50;;;;;;;5.30;1.13;;;;;;;;;;6212512;23;20444;-63
2023/07/25 13:29:16;;;;;;;4.80;0.70;;;;;;;;;;6212028;23;20024;-63
2023/07/25 13:31:42;;;;;;;2.72;0.73;;;;;;;;;;6185618;23;20032;-63
2023/07/25 13:34:09;;;;;;;1.45;0.68;;;;;;;;;;6212412;23;20420;-63
2023/07/25 13:36:35;;;;;;;1.50;0.60;;;;;;;;;;6211940;23;20048;-63
2023/07/25 13:39:01;;;;;;;1.85;0.70;;;;;;;;;;6212405;23;20483;-64
2023/07/25 13:41:27;;;;;;;3.55;0.75;;;;;;;;;;6212597;23;20019;-64
2023/07/25 13:43:53;;;;;;;1.45;0.50;;;;;;;;;;6184759;23;20488;-63
2023/07/25 13:46:19;;;;;;;2.30;0.55;;;;;;;;;;6212075;23;20100;-64
2023/07/25 13:48:47;;;;;;;1.67;0.57;;;;;;;;;;6212181;23;20021;-63
2023/07/25 13:51:13;;;;;;;2.78;0.60;;;;;;;;;;6185069;23;20043;-64
2023/07/25 13:53:39;;;;;;;2.20;0.60;;;;;;;;;;6211936;23;20012;-64
2023/07/25 13:56:05;;;;;;;2.97;0.60;;;;;;;;;;6211845;23;20027;-64
2023/07/25 13:58:31;;;;;;;2.20;0.70;;;;;;;;;;6210970;23;20020;-64
2023/07/25 14:00:57;;;;;;;1.60;0.60;;;;;;;;;;6212140;23;20076;-64
2023/07/25 14:03:24;;;;;;;2.55;0.82;;;;;;;;;;6211772;23;20013;-64
2023/07/25 14:05:50;;;;;;;2.92;0.63;;;;;;;;;;6211792;23;20021;-64
2023/07/25 14:08:16;;;;;;;1.08;0.60;;;;;;;;;;6212291;23;20027;-64
2023/07/25 14:10:42;;;;;;;6.57;0.80;;;;;;;;;;6211839;23;20019;-64
2023/07/25 14:13:08;;;;;;;1.55;0.70;;;;;;;;;;6211759;23;20370;-64
2023/07/25 14:15:35;;;;;;;2.15;0.60;;;;;;;;;;6212562;23;20407;-64
2023/07/25 14:18:01;;;;;;;3.25;0.60;;;;;;;;;;6212200;23;20028;-64
2023/07/25 14:20:27;;;;;;;2.38;0.82;;;;;;;;;;6212000;23;20009;-64
2023/07/25 14:22:53;;;;;;;1.50;0.47;;;;;;;;;;6212163;23;20008;-64
2023/07/25 14:25:19;;;;;;;2.50;0.60;;;;;;;;;;6212177;23;20703;-64
2023/07/25 14:27:45;;;;;;;2.25;0.70;;;;;;;;;;6211771;23;20023;-64
2023/07/25 14:30:11;;;;;;;2.45;0.73;;;;;;;;;;6212315;23;20034;-64
2023/07/25 14:32:37;;;;;;;1.95;0.70;;;;;;;;;;6212257;23;20016;-64
2023/07/25 14:35:04;;;;;;;2.63;0.77;;;;;;;;;;6212107;23;20012;-64
2023/07/25 14:37:30;;;;;;;5.45;0.75;;;;;;;;;;6211578;23;20032;-64